createdAt,value
2019-03-13T00:01:34.620Z,2.43
2019-03-13T00:04:04.935Z,2.30
2019-03-13T00:06:35.074Z,2.50
2019-03-13T00:09:07.946Z,2.37
2019-03-13T00:11:37.726Z,2.80
2019-03-13T00:14:07.598Z,4.67
2019-03-13T00:16:37.376Z,4.00
2019-03-13T00:19:07.229Z,4.87
2019-03-13T00:21:37.039Z,3.40
2019-03-13T00:24:06.780Z,5.80
2019-03-13T00:26:36.565Z,3.43
2019-03-13T00:29:06.263Z,3.70
2019-03-13T00:31:36.143Z,3.00
2019-03-13T00:34:05.955Z,3.50
2019-03-13T00:36:35.601Z,3.00
2019-03-13T00:39:06.639Z,3.93
2019-03-13T00:41:36.302Z,4.53
2019-03-13T00:44:06.111Z,2.77
2019-03-13T00:46:35.893Z,5.87
2019-03-13T00:49:05.526Z,5.43
2019-03-13T00:51:37.034Z,4.17
2019-03-13T00:54:06.974Z,5.10
2019-03-13T00:56:36.686Z,5.13
2019-03-13T00:59:06.415Z,5.63
2019-03-13T01:01:40.523Z,7.23
2019-03-13T01:04:17.784Z,5.17
2019-03-13T01:06:49.404Z,4.63
2019-03-13T01:09:19.061Z,5.93
2019-03-13T01:11:48.880Z,3.50
2019-03-13T01:14:18.683Z,5.33
2019-03-13T01:16:48.483Z,8.00
2019-03-13T01:19:18.297Z,5.20
2019-03-13T01:21:48.083Z,5.57
2019-03-13T01:24:17.835Z,3.87
2019-03-13T01:26:47.575Z,5.77
2019-03-13T01:29:17.282Z,4.47
2019-03-13T01:32:05.128Z,7.83
2019-03-13T01:34:39.159Z,8.43
2019-03-13T01:37:08.885Z,4.67
2019-03-13T01:39:38.741Z,4.90
2019-03-13T01:42:08.500Z,4.83
2019-03-13T01:44:40.590Z,7.13
2019-03-13T01:47:09.597Z,6.57
2019-03-13T01:49:39.273Z,6.67
2019-03-13T01:52:09.035Z,6.03
2019-03-13T01:54:38.753Z,8.10
2019-03-13T01:57:08.526Z,6.90
2019-03-13T01:59:38.224Z,8.93
2019-03-13T02:02:07.975Z,9.40
2019-03-13T02:04:37.727Z,6.53
2019-03-13T02:07:07.504Z,9.67
2019-03-13T02:09:37.185Z,7.47
2019-03-13T02:12:07.103Z,6.07
2019-03-13T02:14:36.814Z,8.43
2019-03-13T02:17:06.560Z,8.77
2019-03-13T02:19:36.246Z,6.40
2019-03-13T02:22:05.986Z,9.47
2019-03-13T02:24:35.689Z,8.70
2019-03-13T02:27:05.542Z,8.67
2019-03-13T02:29:35.190Z,9.67
2019-03-13T02:32:04.939Z,9.37
2019-03-13T02:34:34.809Z,10.13
2019-03-13T02:37:04.614Z,9.17
2019-03-13T02:39:34.395Z,7.57
2019-03-13T02:42:04.232Z,8.87
2019-03-13T02:44:33.928Z,7.97
2019-03-13T02:47:03.588Z,8.20
2019-03-13T02:49:33.245Z,10.13
2019-03-13T02:52:03.045Z,8.23
2019-03-13T02:54:32.792Z,7.73
2019-03-13T02:57:02.752Z,9.70
2019-03-13T02:59:32.379Z,9.73
2019-03-13T03:02:09.295Z,9.70
2019-03-13T03:04:39.097Z,9.93
2019-03-13T03:07:12.643Z,9.97
2019-03-13T03:09:40.185Z,9.53
2019-03-13T03:12:09.930Z,10.00
2019-03-13T03:14:39.701Z,8.80
2019-03-13T03:17:09.461Z,9.50
2019-03-13T03:19:39.225Z,9.27
2019-03-13T03:22:08.900Z,9.07
2019-03-13T03:24:38.601Z,10.53
2019-03-13T03:27:08.321Z,9.73
2019-03-13T03:29:39.016Z,10.10
2019-03-13T03:32:08.988Z,12.83
2019-03-13T03:34:38.681Z,13.67
2019-03-13T03:37:08.378Z,14.33
2019-03-13T03:39:38.170Z,13.30
2019-03-13T03:42:07.920Z,9.17
2019-03-13T03:44:37.876Z,11.03
2019-03-13T03:47:07.627Z,12.23
2019-03-13T03:49:37.310Z,13.37
2019-03-13T03:52:07.090Z,15.20
2019-03-13T03:54:36.914Z,13.87
2019-03-13T03:57:06.693Z,11.43
2019-03-13T03:59:36.503Z,11.33
2019-03-13T04:02:06.300Z,9.53
2019-03-13T04:04:35.962Z,12.57
2019-03-13T04:07:05.766Z,13.40
2019-03-13T04:09:35.533Z,12.33
2019-03-13T04:12:05.329Z,11.83
2019-03-13T04:14:35.001Z,12.50
2019-03-13T04:17:04.904Z,13.43
2019-03-13T04:19:34.576Z,15.13
2019-03-13T04:22:04.342Z,13.40
2019-03-13T04:24:34.156Z,10.27
2019-03-13T04:27:03.897Z,11.57
2019-03-13T04:29:33.643Z,11.17
2019-03-13T04:32:03.432Z,11.53
2019-03-13T04:34:33.151Z,9.60
2019-03-13T04:37:02.836Z,10.53
2019-03-13T04:39:32.528Z,8.93
2019-03-13T04:42:02.235Z,11.27
2019-03-13T04:44:31.900Z,9.30
2019-03-13T04:47:01.729Z,11.23
2019-03-13T04:49:31.443Z,9.80
2019-03-13T04:52:01.085Z,14.33
2019-03-13T04:54:30.834Z,11.07
2019-03-13T04:57:00.568Z,9.43
2019-03-13T04:59:30.274Z,12.27
2019-03-13T05:01:59.973Z,11.30
2019-03-13T05:04:29.636Z,10.97
2019-03-13T05:06:59.378Z,9.43
2019-03-13T05:09:34.703Z,12.80
2019-03-13T05:12:04.562Z,11.03
2019-03-13T05:14:34.236Z,11.50
2019-03-13T05:17:03.984Z,16.33
2019-03-13T05:19:33.714Z,9.10
2019-03-13T05:22:03.494Z,12.83
2019-03-13T05:24:33.275Z,8.33
2019-03-13T05:27:03.036Z,11.63
2019-03-13T05:29:32.727Z,17.30
2019-03-13T05:32:02.437Z,10.80
2019-03-13T05:34:32.082Z,11.93
2019-03-13T05:37:01.845Z,9.43
2019-03-13T05:39:31.565Z,14.10
2019-03-13T05:42:01.232Z,10.10
2019-03-13T05:44:31.003Z,17.27
2019-03-13T05:47:00.705Z,11.33
2019-03-13T05:49:30.371Z,11.87
2019-03-13T05:52:00.034Z,9.63
2019-03-13T05:54:29.783Z,16.43
2019-03-13T05:56:59.589Z,10.67
2019-03-13T05:59:29.261Z,12.47
2019-03-13T06:01:58.927Z,10.70
2019-03-13T06:04:28.640Z,15.13
2019-03-13T06:06:58.383Z,12.13
2019-03-13T06:09:28.234Z,13.07
2019-03-13T06:11:57.972Z,14.10
2019-03-13T06:14:27.659Z,13.57
2019-03-13T06:16:57.337Z,11.57
2019-03-13T06:19:27.037Z,11.77
2019-03-13T06:21:58.859Z,10.50
2019-03-13T06:24:28.856Z,15.53
2019-03-13T06:26:58.584Z,11.53
2019-03-13T06:29:31.497Z,10.33
2019-03-13T06:31:59.864Z,15.73
2019-03-13T06:34:29.553Z,17.00
2019-03-13T06:36:59.427Z,14.70
2019-03-13T06:39:31.890Z,16.43
2019-03-13T06:42:00.547Z,14.97
2019-03-13T06:44:30.252Z,11.07
2019-03-13T06:46:59.951Z,15.70
2019-03-13T06:49:29.706Z,15.27
2019-03-13T06:51:59.450Z,15.10
2019-03-13T06:54:29.167Z,16.07
2019-03-13T06:56:58.895Z,12.70
2019-03-13T06:59:30.231Z,14.30
2019-03-13T07:02:01.733Z,16.17
2019-03-13T07:04:35.811Z,13.80
2019-03-13T07:07:25.112Z,9.10
2019-03-13T07:09:59.014Z,15.97
2019-03-13T07:12:36.501Z,11.57
2019-03-13T07:15:09.671Z,13.40
2019-03-13T07:17:41.065Z,14.70
2019-03-13T07:20:13.172Z,14.37
2019-03-13T07:22:47.327Z,14.40
2019-03-13T07:25:36.727Z,17.93
2019-03-13T07:28:08.231Z,10.57
2019-03-13T07:30:42.238Z,12.50
2019-03-13T07:33:28.406Z,18.73
2019-03-13T07:36:14.872Z,10.63
2019-03-13T07:38:46.190Z,19.17
2019-03-13T07:41:17.610Z,23.90
2019-03-13T07:44:05.044Z,17.03
2019-03-13T07:46:52.915Z,13.27
2019-03-13T07:49:33.318Z,15.90
2019-03-13T07:52:23.116Z,12.87
2019-03-13T07:55:03.485Z,16.40
2019-03-13T07:57:37.508Z,17.47
2019-03-13T08:00:12.093Z,15.30
2019-03-13T08:02:43.423Z,11.77
2019-03-13T08:05:15.071Z,13.67
2019-03-13T08:07:46.587Z,12.70
2019-03-13T08:10:24.280Z,14.40
2019-03-13T08:13:04.807Z,15.43
2019-03-13T08:15:47.960Z,14.00
2019-03-13T08:18:21.968Z,13.53
2019-03-13T08:21:09.521Z,15.03
2019-03-13T08:23:40.844Z,12.30
2019-03-13T08:26:12.186Z,12.13
2019-03-13T08:28:43.608Z,16.60
2019-03-13T08:31:17.701Z,9.47
2019-03-13T08:34:02.723Z,17.77
2019-03-13T08:36:34.085Z,20.13
2019-03-13T08:39:22.214Z,13.03
2019-03-13T08:41:53.714Z,13.13
2019-03-13T08:44:25.112Z,10.33
2019-03-13T08:47:05.718Z,11.90
2019-03-13T08:49:40.774Z,14.37
2019-03-13T08:52:28.517Z,11.30
2019-03-13T08:55:02.373Z,14.00
2019-03-13T08:57:48.424Z,12.80
2019-03-13T09:00:19.948Z,13.80
2019-03-13T09:02:57.047Z,12.80
2019-03-13T09:05:28.412Z,12.37
2019-03-13T09:08:02.693Z,16.27
2019-03-13T09:10:34.204Z,11.37
2019-03-13T09:13:05.501Z,12.37
2019-03-13T09:15:39.341Z,11.13
2019-03-13T09:18:13.350Z,14.63
2019-03-13T09:20:53.948Z,14.30
2019-03-13T09:23:37.505Z,11.43
2019-03-13T09:26:11.910Z,12.30
2019-03-13T09:28:45.991Z,11.87
2019-03-13T09:31:20.269Z,9.03
2019-03-13T09:34:00.785Z,13.07
2019-03-13T09:36:38.244Z,11.43
2019-03-13T09:39:26.203Z,12.60
2019-03-13T09:42:13.865Z,12.37
2019-03-13T09:45:00.028Z,13.73
2019-03-13T09:47:34.431Z,11.60
2019-03-13T09:50:16.397Z,11.30
2019-03-13T09:52:59.761Z,10.97
2019-03-13T09:55:36.883Z,13.43
2019-03-13T09:58:08.328Z,11.20
2019-03-13T10:00:51.662Z,13.20
2019-03-13T10:03:25.855Z,9.63
2019-03-13T10:06:00.066Z,12.97
2019-03-13T10:08:37.330Z,11.40
2019-03-13T10:11:09.039Z,15.27
2019-03-13T10:13:52.912Z,11.63
2019-03-13T10:16:40.760Z,14.60
2019-03-13T10:19:20.943Z,13.07
2019-03-13T10:21:54.953Z,13.63
2019-03-13T10:24:38.552Z,13.03
2019-03-13T10:27:10.003Z,9.13
2019-03-13T10:29:41.384Z,13.60
2019-03-13T10:32:25.290Z,8.60
2019-03-13T10:35:02.951Z,11.77
2019-03-13T10:37:37.086Z,10.83
2019-03-13T10:40:11.365Z,9.37
2019-03-13T10:42:58.877Z,8.17
2019-03-13T10:45:36.366Z,11.13
2019-03-13T10:48:10.626Z,10.80
2019-03-13T10:50:42.068Z,11.10
2019-03-13T10:53:25.771Z,7.53
2019-03-13T10:55:59.773Z,14.23
2019-03-13T10:58:49.107Z,12.03
2019-03-13T11:01:32.467Z,10.63
2019-03-13T11:04:03.885Z,10.90
2019-03-13T11:06:38.207Z,9.77
2019-03-13T11:09:19.021Z,11.90
2019-03-13T11:12:05.461Z,8.57
2019-03-13T11:14:39.514Z,8.37
2019-03-13T11:17:26.647Z,8.30
2019-03-13T11:20:01.138Z,10.07
2019-03-13T11:22:32.518Z,8.83
2019-03-13T11:25:03.940Z,7.83
2019-03-13T11:27:35.372Z,5.67
2019-03-13T11:30:20.603Z,8.40
2019-03-13T11:32:51.125Z,9.47
2019-03-13T11:35:22.597Z,7.07
2019-03-13T11:38:05.889Z,7.47
2019-03-13T11:40:52.696Z,6.77
2019-03-13T11:43:29.814Z,6.33
2019-03-13T11:46:19.325Z,6.40
2019-03-13T11:48:53.675Z,6.20
2019-03-13T11:51:43.248Z,8.63
2019-03-13T11:54:23.837Z,6.50
2019-03-13T11:56:57.839Z,8.63
2019-03-13T11:59:32.227Z,8.47
2019-03-13T12:02:09.262Z,7.77
2019-03-13T12:04:40.722Z,8.33
2019-03-13T12:07:14.833Z,7.57
2019-03-13T12:09:48.618Z,9.27
2019-03-13T12:12:32.047Z,6.70
2019-03-13T12:15:03.521Z,13.33
2019-03-13T12:17:37.602Z,10.33
2019-03-13T12:20:10.519Z,12.60
2019-03-13T12:22:41.923Z,11.23
2019-03-13T12:25:19.962Z,8.33
2019-03-13T12:28:08.034Z,12.17
2019-03-13T12:30:39.498Z,8.20
2019-03-13T12:33:20.146Z,11.27
2019-03-13T12:35:54.443Z,11.93
2019-03-13T12:38:28.474Z,7.33
2019-03-13T12:40:59.902Z,10.77
2019-03-13T12:43:31.390Z,8.17
2019-03-13T12:46:02.690Z,12.00
2019-03-13T12:48:37.092Z,8.77
2019-03-13T12:51:17.490Z,9.83
2019-03-13T12:54:01.100Z,9.47
2019-03-13T12:56:32.420Z,10.27
2019-03-13T12:59:15.894Z,10.10
2019-03-13T13:01:53.193Z,11.20
2019-03-13T13:04:40.977Z,6.63
2019-03-13T13:07:12.408Z,11.87
2019-03-13T13:09:56.094Z,14.53
2019-03-13T13:12:36.413Z,13.60
2019-03-13T13:15:26.209Z,14.23
2019-03-13T13:17:57.700Z,13.93
2019-03-13T13:20:27.586Z,11.50
2019-03-13T13:22:57.323Z,10.63
2019-03-13T13:25:27.094Z,11.43
2019-03-13T13:27:56.875Z,9.60
2019-03-13T13:30:26.624Z,13.13
2019-03-13T13:32:56.481Z,10.83
2019-03-13T13:35:26.241Z,9.33
2019-03-13T13:37:56.104Z,11.97
2019-03-13T13:40:25.800Z,13.13
2019-03-13T13:42:55.593Z,6.43
2019-03-13T13:45:34.358Z,6.70
2019-03-13T13:48:04.083Z,8.87
2019-03-13T13:50:33.815Z,8.50
2019-03-13T13:53:03.586Z,8.93
2019-03-13T13:55:33.362Z,9.23
2019-03-13T13:58:03.105Z,12.60
2019-03-13T14:00:32.907Z,9.47
2019-03-13T14:03:02.647Z,9.43
2019-03-13T14:05:32.530Z,7.53
2019-03-13T14:08:02.217Z,5.00
2019-03-13T14:10:31.892Z,6.23
2019-03-13T14:13:01.641Z,5.20
2019-03-13T14:15:31.563Z,17.60
2019-03-13T14:18:01.362Z,24.00
2019-03-13T14:20:31.192Z,100.53
2019-03-13T14:23:01.059Z,21.53
2019-03-13T14:25:30.897Z,5.33
2019-03-13T14:28:00.668Z,7.10
2019-03-13T14:30:30.368Z,5.87
2019-03-13T14:33:00.158Z,6.30
2019-03-13T14:35:29.829Z,7.47
2019-03-13T14:37:59.565Z,7.63
2019-03-13T14:40:29.212Z,4.57
2019-03-13T14:42:59.075Z,3.23
2019-03-13T14:45:28.840Z,2.87
2019-03-13T14:47:59.482Z,4.10
2019-03-13T14:50:29.223Z,2.97
2019-03-13T14:52:58.903Z,5.13
2019-03-13T14:55:28.854Z,3.37
2019-03-13T14:57:58.543Z,5.53
2019-03-13T15:00:28.374Z,6.07
2019-03-13T15:02:58.144Z,6.40
2019-03-13T15:05:27.898Z,5.17
2019-03-13T15:07:57.804Z,3.93
2019-03-13T15:10:27.541Z,6.23
2019-03-13T15:12:57.247Z,7.57
2019-03-13T15:15:26.985Z,5.53
2019-03-13T15:17:56.726Z,5.50
2019-03-13T15:20:28.625Z,7.27
2019-03-13T15:22:58.495Z,5.13
2019-03-13T15:25:28.269Z,7.50
2019-03-13T15:27:58.027Z,4.53
2019-03-13T15:30:32.037Z,5.67
2019-03-13T15:33:01.788Z,6.30
2019-03-13T15:35:31.545Z,5.20
2019-03-13T15:38:01.260Z,4.20
2019-03-13T15:40:31.099Z,5.47
2019-03-13T15:43:00.747Z,4.80
2019-03-13T15:45:34.327Z,3.13
2019-03-13T15:48:04.396Z,4.70
2019-03-13T15:50:34.024Z,5.27
2019-03-13T15:53:03.926Z,4.30
2019-03-13T15:55:33.606Z,7.23
2019-03-13T15:58:03.255Z,7.43
2019-03-13T16:00:33.116Z,5.43
2019-03-13T16:03:02.825Z,5.53
2019-03-13T16:05:32.646Z,5.47
2019-03-13T16:08:02.416Z,7.70
2019-03-13T16:10:32.514Z,8.67
2019-03-13T16:13:03.893Z,8.33
2019-03-13T16:15:35.498Z,8.23
2019-03-13T16:18:05.444Z,8.80
2019-03-13T16:20:35.203Z,8.87
2019-03-13T16:23:05.057Z,11.23
2019-03-13T16:25:34.884Z,10.57
2019-03-13T16:28:04.702Z,7.60
2019-03-13T16:30:36.151Z,9.57
2019-03-13T16:33:06.000Z,9.47
2019-03-13T16:35:35.770Z,8.50
2019-03-13T16:38:05.635Z,13.07
2019-03-13T16:40:35.407Z,8.00
2019-03-13T16:43:05.382Z,8.27
2019-03-13T16:45:35.145Z,8.27
2019-03-13T16:48:05.097Z,5.53
2019-03-13T16:50:38.708Z,6.37
2019-03-13T16:53:08.507Z,4.40
2019-03-13T16:55:38.274Z,6.40
2019-03-13T16:58:08.084Z,5.13
2019-03-13T17:00:37.895Z,4.30
2019-03-13T17:03:07.725Z,4.13
2019-03-13T17:05:37.408Z,6.23
2019-03-13T17:08:07.194Z,8.00
2019-03-13T17:10:36.949Z,6.73
2019-03-13T17:13:06.756Z,7.30
2019-03-13T17:15:36.584Z,10.23
2019-03-13T17:18:06.372Z,8.07
2019-03-13T17:20:38.415Z,6.47
2019-03-13T17:23:08.237Z,10.43
2019-03-13T17:25:37.969Z,7.67
2019-03-13T17:28:07.796Z,7.13
2019-03-13T17:30:37.581Z,6.97
2019-03-13T17:33:07.421Z,8.20
2019-03-13T17:35:37.206Z,11.67
2019-03-13T17:38:07.026Z,7.20
2019-03-13T17:40:36.769Z,8.30
2019-03-13T17:43:07.185Z,7.33
2019-03-13T17:45:36.944Z,5.20
2019-03-13T17:48:07.372Z,7.87
2019-03-13T17:50:37.262Z,7.73
2019-03-13T17:53:07.059Z,8.57
2019-03-13T17:55:36.898Z,5.93
2019-03-13T17:58:06.602Z,4.77
2019-03-13T18:00:51.345Z,6.63
2019-03-13T18:03:22.265Z,7.93
2019-03-13T18:05:52.115Z,6.00
2019-03-13T18:08:21.939Z,8.77
2019-03-13T18:10:51.725Z,9.07
2019-03-13T18:13:21.580Z,10.63
2019-03-13T18:15:51.340Z,8.63
2019-03-13T18:18:20.975Z,9.27
2019-03-13T18:20:50.702Z,6.83
2019-03-13T18:23:20.604Z,9.77
2019-03-13T18:25:50.855Z,8.70
2019-03-13T18:28:20.623Z,6.53
2019-03-13T18:30:50.470Z,8.33
2019-03-13T18:33:20.141Z,8.13
2019-03-13T18:35:49.915Z,9.07
2019-03-13T18:38:19.995Z,5.23
2019-03-13T18:40:50.246Z,10.33
2019-03-13T18:43:20.087Z,13.27
2019-03-13T18:45:49.839Z,12.30
2019-03-13T18:48:19.875Z,10.67
2019-03-13T18:50:50.166Z,9.70
2019-03-13T18:53:20.414Z,8.70
2019-03-13T18:55:50.270Z,11.10
2019-03-13T18:58:20.026Z,12.00
2019-03-13T19:00:50.186Z,12.73
2019-03-13T19:03:23.186Z,9.90
2019-03-13T19:05:56.466Z,13.20
2019-03-13T19:08:29.337Z,11.40
2019-03-13T19:11:02.677Z,9.13
2019-03-13T19:13:36.207Z,11.13
2019-03-13T19:16:08.843Z,10.73
2019-03-13T19:18:40.740Z,8.33
2019-03-13T19:21:12.696Z,10.90
2019-03-13T19:23:44.990Z,15.80
2019-03-13T19:26:17.633Z,11.70
2019-03-13T19:28:48.267Z,12.90
2019-03-13T19:31:22.536Z,14.23
2019-03-13T19:33:53.832Z,11.03
2019-03-13T19:36:23.583Z,17.30
2019-03-13T19:38:53.434Z,21.03
2019-03-13T19:41:23.110Z,12.90
2019-03-13T19:43:57.015Z,16.07
2019-03-13T19:46:27.066Z,13.30
2019-03-13T19:48:56.800Z,13.43
2019-03-13T19:51:30.952Z,18.07
2019-03-13T19:54:01.264Z,13.73
2019-03-13T19:56:31.052Z,12.23
2019-03-13T19:59:00.890Z,15.93
2019-03-13T20:01:30.680Z,18.17
2019-03-13T20:04:00.427Z,20.80
2019-03-13T20:06:41.742Z,16.57
2019-03-13T20:09:01.557Z,13.07
2019-03-13T20:11:31.279Z,18.27
2019-03-13T20:14:01.021Z,13.90
2019-03-13T20:16:30.803Z,18.57
2019-03-13T20:19:00.471Z,18.07
2019-03-13T20:21:31.305Z,14.43
2019-03-13T20:24:01.198Z,14.20
2019-03-13T20:26:30.887Z,16.60
2019-03-13T20:29:00.637Z,18.03
2019-03-13T20:31:30.386Z,18.23
2019-03-13T20:34:00.181Z,17.73
2019-03-13T20:36:29.991Z,13.53
2019-03-13T20:38:59.728Z,18.30
2019-03-13T20:41:29.559Z,11.53
2019-03-13T20:43:59.285Z,16.37
2019-03-13T20:46:28.974Z,15.10
2019-03-13T20:48:58.649Z,17.00
2019-03-13T20:51:28.440Z,12.93
2019-03-13T20:53:58.082Z,22.77
2019-03-13T20:56:27.806Z,18.47
2019-03-13T20:58:57.655Z,21.03
2019-03-13T21:01:27.464Z,25.50
2019-03-13T21:03:57.223Z,18.23
2019-03-13T21:06:27.080Z,22.63
2019-03-13T21:08:56.881Z,17.97
2019-03-13T21:11:26.555Z,16.93
2019-03-13T21:13:56.391Z,19.10
2019-03-13T21:16:26.234Z,16.93
2019-03-13T21:18:55.950Z,14.63
2019-03-13T21:21:29.703Z,14.07
2019-03-13T21:24:03.116Z,24.07
2019-03-13T21:26:40.696Z,20.63
2019-03-13T21:29:14.188Z,19.50
2019-03-13T21:31:46.622Z,17.73
2019-03-13T21:34:16.642Z,19.97
2019-03-13T21:36:46.396Z,22.70
2019-03-13T21:39:16.266Z,24.70
2019-03-13T21:41:46.298Z,28.27
2019-03-13T21:44:15.976Z,21.03
2019-03-13T21:46:45.678Z,15.73
2019-03-13T21:49:15.551Z,19.50
2019-03-13T21:51:45.199Z,21.57
2019-03-13T21:54:14.984Z,22.63
2019-03-13T21:56:44.762Z,17.30
2019-03-13T21:59:14.535Z,23.07
2019-03-13T22:01:44.211Z,24.20
2019-03-13T22:04:23.606Z,17.77
2019-03-13T22:06:45.407Z,22.90
2019-03-13T22:09:15.066Z,19.53
2019-03-13T22:11:44.855Z,21.70
2019-03-13T22:14:14.579Z,19.67
2019-03-13T22:16:44.296Z,22.20
2019-03-13T22:19:13.989Z,28.23
2019-03-13T22:21:43.785Z,24.70
2019-03-13T22:24:13.482Z,29.10
2019-03-13T22:26:43.250Z,16.13
2019-03-13T22:29:13.025Z,21.50
2019-03-13T22:31:42.707Z,19.80
2019-03-13T22:34:15.462Z,21.37
2019-03-13T22:36:43.957Z,18.07
2019-03-13T22:39:13.743Z,20.83
2019-03-13T22:41:43.417Z,17.87
2019-03-13T22:44:13.110Z,18.60
2019-03-13T22:46:42.894Z,14.17
2019-03-13T22:49:12.755Z,21.00
2019-03-13T22:51:42.475Z,20.60
2019-03-13T22:54:12.151Z,16.27
2019-03-13T22:56:41.875Z,16.67
2019-03-13T22:59:11.675Z,22.67
2019-03-13T23:01:43.083Z,20.13
2019-03-13T23:04:13.001Z,15.60
2019-03-13T23:06:42.790Z,24.00
2019-03-13T23:09:12.618Z,16.63
2019-03-13T23:11:42.464Z,16.00
2019-03-13T23:14:12.299Z,15.57
2019-03-13T23:16:42.208Z,11.33
2019-03-13T23:19:11.964Z,18.10
2019-03-13T23:21:41.707Z,22.40
2019-03-13T23:24:11.520Z,17.03
2019-03-13T23:26:41.268Z,18.60
2019-03-13T23:29:11.048Z,14.27
2019-03-13T23:31:40.821Z,16.00
2019-03-13T23:34:10.542Z,21.17
2019-03-13T23:36:40.194Z,16.90
2019-03-13T23:39:10.621Z,11.63
2019-03-13T23:41:40.367Z,19.07
2019-03-13T23:44:10.135Z,18.43
2019-03-13T23:46:39.953Z,15.80
2019-03-13T23:49:09.686Z,19.90
2019-03-13T23:51:39.384Z,16.60
2019-03-13T23:54:09.137Z,14.80
2019-03-13T23:56:38.837Z,19.03
2019-03-13T23:59:08.648Z,15.73
